sensor_id;sensor_type;location;lat;lon;timestamp;P1;durP1;ratioP1;P2;durP2;ratioP2
54937;SDS011;52756;52.826;6.214;2023-02-11T00:01:38;23.73;;;6.18;;
54937;SDS011;52756;52.826;6.214;2023-02-11T00:04:04;15.20;;;5.75;;
54937;SDS011;52756;52.826;6.214;2023-02-11T00:06:31;17.75;;;5.93;;
54937;SDS011;52756;52.826;6.214;2023-02-11T00:08:58;19.33;;;6.28;;
54937;SDS011;52756;52.826;6.214;2023-02-11T00:11:25;21.15;;;6.13;;
54937;SDS011;52756;52.826;6.214;2023-02-11T00:13:55;23.23;;;5.63;;
54937;SDS011;52756;52.826;6.214;2023-02-11T00:16:25;20.60;;;5.43;;
54937;SDS011;52756;52.826;6.214;2023-02-11T00:18:50;15.88;;;6.32;;
54937;SDS011;52756;52.826;6.214;2023-02-11T00:21:22;14.90;;;5.28;;
54937;SDS011;52756;52.826;6.214;2023-02-11T00:23:49;20.50;;;6.10;;
54937;SDS011;52756;52.826;6.214;2023-02-11T00:26:19;21.10;;;6.38;;
54937;SDS011;52756;52.826;6.214;2023-02-11T00:28:47;16.42;;;5.63;;
54937;SDS011;52756;52.826;6.214;2023-02-11T00:31:14;22.52;;;6.03;;
54937;SDS011;52756;52.826;6.214;2023-02-11T00:33:40;12.60;;;4.82;;
54937;SDS011;52756;52.826;6.214;2023-02-11T00:36:13;17.05;;;5.43;;
54937;SDS011;52756;52.826;6.214;2023-02-11T00:38:44;17.48;;;6.18;;
54937;SDS011;52756;52.826;6.214;2023-02-11T00:41:11;18.60;;;5.80;;
54937;SDS011;52756;52.826;6.214;2023-02-11T00:43:38;19.08;;;5.90;;
54937;SDS011;52756;52.826;6.214;2023-02-11T00:46:04;19.10;;;5.80;;
54937;SDS011;52756;52.826;6.214;2023-02-11T00:48:30;17.10;;;5.28;;
54937;SDS011;52756;52.826;6.214;2023-02-11T00:50:56;20.92;;;5.53;;
54937;SDS011;52756;52.826;6.214;2023-02-11T00:53:22;20.05;;;5.30;;
54937;SDS011;52756;52.826;6.214;2023-02-11T00:55:48;17.42;;;5.13;;
54937;SDS011;52756;52.826;6.214;2023-02-11T00:58:13;18.55;;;6.00;;
54937;SDS011;52756;52.826;6.214;2023-02-11T01:00:39;19.10;;;5.97;;
54937;SDS011;52756;52.826;6.214;2023-02-11T01:03:05;17.52;;;5.32;;
54937;SDS011;52756;52.826;6.214;2023-02-11T01:05:30;17.95;;;6.05;;
54937;SDS011;52756;52.826;6.214;2023-02-11T01:07:56;17.85;;;5.90;;
54937;SDS011;52756;52.826;6.214;2023-02-11T01:10:22;18.67;;;5.80;;
54937;SDS011;52756;52.826;6.214;2023-02-11T01:12:48;15.82;;;5.50;;
54937;SDS011;52756;52.826;6.214;2023-02-11T01:15:14;19.20;;;6.05;;
54937;SDS011;52756;52.826;6.214;2023-02-11T01:17:40;16.92;;;5.18;;
54937;SDS011;52756;52.826;6.214;2023-02-11T01:20:07;19.83;;;5.60;;
54937;SDS011;52756;52.826;6.214;2023-02-11T01:22:37;16.77;;;6.70;;
54937;SDS011;52756;52.826;6.214;2023-02-11T01:25:04;22.45;;;6.68;;
54937;SDS011;52756;52.826;6.214;2023-02-11T01:27:31;20.15;;;5.88;;
54937;SDS011;52756;52.826;6.214;2023-02-11T01:29:57;23.92;;;6.43;;
54937;SDS011;52756;52.826;6.214;2023-02-11T01:32:22;18.15;;;6.32;;
54937;SDS011;52756;52.826;6.214;2023-02-11T01:34:48;17.67;;;6.15;;
54937;SDS011;52756;52.826;6.214;2023-02-11T01:37:14;18.27;;;6.55;;
54937;SDS011;52756;52.826;6.214;2023-02-11T01:39:40;20.88;;;5.95;;
54937;SDS011;52756;52.826;6.214;2023-02-11T01:42:05;21.75;;;6.30;;
54937;SDS011;52756;52.826;6.214;2023-02-11T01:44:36;23.17;;;7.18;;
54937;SDS011;52756;52.826;6.214;2023-02-11T01:47:03;21.13;;;7.32;;
54937;SDS011;52756;52.826;6.214;2023-02-11T01:49:31;23.77;;;8.90;;
54937;SDS011;52756;52.826;6.214;2023-02-11T01:54:43;15.45;;;6.35;;
54937;SDS011;52756;52.826;6.214;2023-02-11T01:57:50;20.50;;;7.75;;
54937;SDS011;52756;52.826;6.214;2023-02-11T02:00:29;19.88;;;7.45;;
54937;SDS011;52756;52.826;6.214;2023-02-11T02:02:57;23.92;;;8.05;;
54937;SDS011;52756;52.826;6.214;2023-02-11T02:05:34;20.63;;;7.32;;
54937;SDS011;52756;52.826;6.214;2023-02-11T02:10:48;18.63;;;6.80;;
54937;SDS011;52756;52.826;6.214;2023-02-11T02:13:18;16.48;;;7.57;;
54937;SDS011;52756;52.826;6.214;2023-02-11T02:15:46;23.00;;;8.13;;
54937;SDS011;52756;52.826;6.214;2023-02-11T02:37:49;24.20;;;8.68;;
54937;SDS011;52756;52.826;6.214;2023-02-11T02:40:28;29.20;;;9.48;;
54937;SDS011;52756;52.826;6.214;2023-02-11T02:43:01;24.08;;;9.23;;
54937;SDS011;52756;52.826;6.214;2023-02-11T02:45:28;28.65;;;9.80;;
54937;SDS011;52756;52.826;6.214;2023-02-11T02:47:54;22.23;;;9.48;;
54937;SDS011;52756;52.826;6.214;2023-02-11T02:50:21;19.27;;;9.50;;
54937;SDS011;52756;52.826;6.214;2023-02-11T02:55:48;24.10;;;10.50;;
54937;SDS011;52756;52.826;6.214;2023-02-11T03:01:41;25.17;;;10.80;;
54937;SDS011;52756;52.826;6.214;2023-02-11T03:10:07;27.25;;;10.13;;
54937;SDS011;52756;52.826;6.214;2023-02-11T03:12:43;26.63;;;10.52;;
54937;SDS011;52756;52.826;6.214;2023-02-11T03:15:11;19.17;;;9.68;;
54937;SDS011;52756;52.826;6.214;2023-02-11T03:17:38;23.08;;;10.85;;
54937;SDS011;52756;52.826;6.214;2023-02-11T03:20:09;23.13;;;10.60;;
54937;SDS011;52756;52.826;6.214;2023-02-11T03:22:39;25.17;;;11.18;;
54937;SDS011;52756;52.826;6.214;2023-02-11T03:25:09;20.92;;;10.95;;
54937;SDS011;52756;52.826;6.214;2023-02-11T03:27:40;29.73;;;10.55;;
54937;SDS011;52756;52.826;6.214;2023-02-11T03:32:49;22.92;;;10.82;;
54937;SDS011;52756;52.826;6.214;2023-02-11T03:35:20;26.00;;;10.45;;
54937;SDS011;52756;52.826;6.214;2023-02-11T03:38:05;29.55;;;12.70;;
54937;SDS011;52756;52.826;6.214;2023-02-11T03:40:38;24.02;;;10.35;;
54937;SDS011;52756;52.826;6.214;2023-02-11T03:43:11;25.95;;;11.55;;
54937;SDS011;52756;52.826;6.214;2023-02-11T03:45:41;22.83;;;11.95;;
54937;SDS011;52756;52.826;6.214;2023-02-11T03:48:17;26.35;;;13.10;;
54937;SDS011;52756;52.826;6.214;2023-02-11T03:50:49;24.95;;;11.40;;
54937;SDS011;52756;52.826;6.214;2023-02-11T03:53:17;24.52;;;11.40;;
54937;SDS011;52756;52.826;6.214;2023-02-11T03:55:45;21.65;;;11.27;;
54937;SDS011;52756;52.826;6.214;2023-02-11T03:58:12;24.38;;;11.85;;
54937;SDS011;52756;52.826;6.214;2023-02-11T04:00:39;24.50;;;11.73;;
54937;SDS011;52756;52.826;6.214;2023-02-11T04:03:06;28.05;;;12.10;;
54937;SDS011;52756;52.826;6.214;2023-02-11T04:05:33;23.60;;;11.65;;
54937;SDS011;52756;52.826;6.214;2023-02-11T04:07:59;25.52;;;11.40;;
54937;SDS011;52756;52.826;6.214;2023-02-11T04:10:24;30.05;;;13.55;;
54937;SDS011;52756;52.826;6.214;2023-02-11T04:12:50;29.15;;;11.70;;
54937;SDS011;52756;52.826;6.214;2023-02-11T04:15:16;27.52;;;12.93;;
54937;SDS011;52756;52.826;6.214;2023-02-11T04:17:42;24.75;;;12.57;;
54937;SDS011;52756;52.826;6.214;2023-02-11T04:20:08;29.65;;;12.57;;
54937;SDS011;52756;52.826;6.214;2023-02-11T04:22:34;24.10;;;13.07;;
54937;SDS011;52756;52.826;6.214;2023-02-11T04:25:01;29.70;;;14.13;;
54937;SDS011;52756;52.826;6.214;2023-02-11T04:27:28;28.02;;;13.95;;
54937;SDS011;52756;52.826;6.214;2023-02-11T04:29:53;27.60;;;13.85;;
54937;SDS011;52756;52.826;6.214;2023-02-11T04:32:19;27.92;;;13.73;;
54937;SDS011;52756;52.826;6.214;2023-02-11T04:34:45;30.13;;;14.50;;
54937;SDS011;52756;52.826;6.214;2023-02-11T04:37:11;26.95;;;14.23;;
54937;SDS011;52756;52.826;6.214;2023-02-11T04:39:36;30.48;;;15.25;;
54937;SDS011;52756;52.826;6.214;2023-02-11T04:42:02;27.00;;;13.88;;
54937;SDS011;52756;52.826;6.214;2023-02-11T04:44:28;26.63;;;14.20;;
54937;SDS011;52756;52.826;6.214;2023-02-11T04:46:54;26.55;;;13.88;;
54937;SDS011;52756;52.826;6.214;2023-02-11T04:49:19;28.05;;;14.45;;
54937;SDS011;52756;52.826;6.214;2023-02-11T04:51:45;29.33;;;14.07;;
54937;SDS011;52756;52.826;6.214;2023-02-11T04:54:11;26.38;;;13.95;;
54937;SDS011;52756;52.826;6.214;2023-02-11T04:56:37;30.35;;;14.55;;
54937;SDS011;52756;52.826;6.214;2023-02-11T04:59:03;33.42;;;14.88;;
54937;SDS011;52756;52.826;6.214;2023-02-11T05:01:29;28.35;;;15.88;;
54937;SDS011;52756;52.826;6.214;2023-02-11T05:03:54;32.13;;;15.93;;
54937;SDS011;52756;52.826;6.214;2023-02-11T05:06:20;29.70;;;15.02;;
54937;SDS011;52756;52.826;6.214;2023-02-11T05:08:46;30.05;;;15.77;;
54937;SDS011;52756;52.826;6.214;2023-02-11T05:11:19;34.28;;;15.52;;
54937;SDS011;52756;52.826;6.214;2023-02-11T05:13:47;26.00;;;13.15;;
54937;SDS011;52756;52.826;6.214;2023-02-11T05:16:13;29.90;;;14.43;;
54937;SDS011;52756;52.826;6.214;2023-02-11T05:18:40;35.97;;;16.15;;
54937;SDS011;52756;52.826;6.214;2023-02-11T05:21:08;29.05;;;14.55;;
54937;SDS011;52756;52.826;6.214;2023-02-11T05:23:35;32.03;;;16.75;;
54937;SDS011;52756;52.826;6.214;2023-02-11T05:26:01;38.70;;;17.20;;
54937;SDS011;52756;52.826;6.214;2023-02-11T05:28:28;33.75;;;16.20;;
54937;SDS011;52756;52.826;6.214;2023-02-11T05:30:54;32.40;;;16.25;;
54937;SDS011;52756;52.826;6.214;2023-02-11T05:33:20;40.30;;;19.10;;
54937;SDS011;52756;52.826;6.214;2023-02-11T05:35:45;37.15;;;17.52;;
54937;SDS011;52756;52.826;6.214;2023-02-11T05:38:11;36.22;;;19.50;;
54937;SDS011;52756;52.826;6.214;2023-02-11T05:40:38;36.55;;;19.38;;
54937;SDS011;52756;52.826;6.214;2023-02-11T05:43:03;35.15;;;18.70;;
54937;SDS011;52756;52.826;6.214;2023-02-11T05:45:29;40.70;;;20.40;;
54937;SDS011;52756;52.826;6.214;2023-02-11T05:47:55;42.97;;;21.52;;
54937;SDS011;52756;52.826;6.214;2023-02-11T05:50:21;41.65;;;19.73;;
54937;SDS011;52756;52.826;6.214;2023-02-11T05:52:47;41.20;;;23.63;;
54937;SDS011;52756;52.826;6.214;2023-02-11T05:55:13;43.65;;;22.27;;
54937;SDS011;52756;52.826;6.214;2023-02-11T05:57:38;38.75;;;21.92;;
54937;SDS011;52756;52.826;6.214;2023-02-11T06:00:04;46.55;;;23.33;;
54937;SDS011;52756;52.826;6.214;2023-02-11T06:02:31;46.10;;;22.52;;
54937;SDS011;52756;52.826;6.214;2023-02-11T06:04:56;40.25;;;23.17;;
54937;SDS011;52756;52.826;6.214;2023-02-11T06:07:22;47.67;;;23.33;;
54937;SDS011;52756;52.826;6.214;2023-02-11T06:09:48;40.63;;;23.23;;
54937;SDS011;52756;52.826;6.214;2023-02-11T06:12:13;42.20;;;22.15;;
54937;SDS011;52756;52.826;6.214;2023-02-11T06:14:39;42.42;;;23.52;;
54937;SDS011;52756;52.826;6.214;2023-02-11T06:17:05;46.03;;;23.70;;
54937;SDS011;52756;52.826;6.214;2023-02-11T06:19:30;43.78;;;22.23;;
54937;SDS011;52756;52.826;6.214;2023-02-11T06:21:56;45.28;;;23.33;;
54937;SDS011;52756;52.826;6.214;2023-02-11T06:24:22;36.47;;;21.13;;
54937;SDS011;52756;52.826;6.214;2023-02-11T06:26:48;41.88;;;21.65;;
54937;SDS011;52756;52.826;6.214;2023-02-11T06:29:14;41.78;;;23.08;;
54937;SDS011;52756;52.826;6.214;2023-02-11T06:31:39;47.45;;;22.95;;
54937;SDS011;52756;52.826;6.214;2023-02-11T06:34:06;41.28;;;24.33;;
54937;SDS011;52756;52.826;6.214;2023-02-11T06:36:32;50.30;;;25.25;;
54937;SDS011;52756;52.826;6.214;2023-02-11T06:38:58;39.50;;;21.15;;
54937;SDS011;52756;52.826;6.214;2023-02-11T06:41:24;41.70;;;21.65;;
54937;SDS011;52756;52.826;6.214;2023-02-11T06:43:51;41.10;;;20.83;;
54937;SDS011;52756;52.826;6.214;2023-02-11T06:46:17;42.25;;;23.45;;
54937;SDS011;52756;52.826;6.214;2023-02-11T06:48:43;40.38;;;21.98;;
54937;SDS011;52756;52.826;6.214;2023-02-11T06:51:09;42.05;;;22.05;;
54937;SDS011;52756;52.826;6.214;2023-02-11T06:53:38;45.92;;;24.08;;
54937;SDS011;52756;52.826;6.214;2023-02-11T06:56:07;45.60;;;23.92;;
54937;SDS011;52756;52.826;6.214;2023-02-11T06:58:34;40.63;;;22.63;;
54937;SDS011;52756;52.826;6.214;2023-02-11T07:01:04;39.85;;;22.90;;
54937;SDS011;52756;52.826;6.214;2023-02-11T07:03:32;39.40;;;22.17;;
54937;SDS011;52756;52.826;6.214;2023-02-11T07:06:02;41.97;;;22.85;;
54937;SDS011;52756;52.826;6.214;2023-02-11T07:08:29;47.95;;;23.90;;
54937;SDS011;52756;52.826;6.214;2023-02-11T07:10:57;39.35;;;23.13;;
54937;SDS011;52756;52.826;6.214;2023-02-11T07:13:22;40.25;;;22.20;;
54937;SDS011;52756;52.826;6.214;2023-02-11T07:15:48;36.65;;;20.35;;
54937;SDS011;52756;52.826;6.214;2023-02-11T07:18:14;39.95;;;22.25;;
54937;SDS011;52756;52.826;6.214;2023-02-11T07:20:40;44.40;;;21.83;;
54937;SDS011;52756;52.826;6.214;2023-02-11T07:23:06;40.45;;;23.13;;
54937;SDS011;52756;52.826;6.214;2023-02-11T07:25:31;43.45;;;23.10;;
54937;SDS011;52756;52.826;6.214;2023-02-11T07:27:57;41.55;;;21.08;;
54937;SDS011;52756;52.826;6.214;2023-02-11T07:30:23;44.92;;;23.73;;
54937;SDS011;52756;52.826;6.214;2023-02-11T07:32:49;40.40;;;22.17;;
54937;SDS011;52756;52.826;6.214;2023-02-11T07:35:15;38.55;;;23.05;;
54937;SDS011;52756;52.826;6.214;2023-02-11T07:37:40;47.92;;;22.85;;
54937;SDS011;52756;52.826;6.214;2023-02-11T07:40:06;44.13;;;24.23;;
54937;SDS011;52756;52.826;6.214;2023-02-11T07:42:33;39.20;;;21.60;;
54937;SDS011;52756;52.826;6.214;2023-02-11T07:44:59;38.08;;;22.35;;
54937;SDS011;52756;52.826;6.214;2023-02-11T07:47:25;40.85;;;22.30;;
54937;SDS011;52756;52.826;6.214;2023-02-11T07:49:51;41.83;;;22.13;;
54937;SDS011;52756;52.826;6.214;2023-02-11T07:52:17;39.15;;;22.00;;
54937;SDS011;52756;52.826;6.214;2023-02-11T07:54:43;39.92;;;22.23;;
54937;SDS011;52756;52.826;6.214;2023-02-11T07:57:09;41.00;;;22.05;;
54937;SDS011;52756;52.826;6.214;2023-02-11T07:59:36;36.15;;;21.20;;
54937;SDS011;52756;52.826;6.214;2023-02-11T08:02:02;39.92;;;23.08;;
54937;SDS011;52756;52.826;6.214;2023-02-11T08:04:28;37.00;;;23.00;;
54937;SDS011;52756;52.826;6.214;2023-02-11T08:06:53;36.80;;;20.80;;
54937;SDS011;52756;52.826;6.214;2023-02-11T08:09:21;38.75;;;21.42;;
54937;SDS011;52756;52.826;6.214;2023-02-11T08:11:47;38.83;;;21.55;;
54937;SDS011;52756;52.826;6.214;2023-02-11T08:14:13;36.28;;;21.35;;
54937;SDS011;52756;52.826;6.214;2023-02-11T08:16:39;42.75;;;22.02;;
54937;SDS011;52756;52.826;6.214;2023-02-11T08:19:06;36.40;;;21.83;;
54937;SDS011;52756;52.826;6.214;2023-02-11T08:21:35;40.88;;;20.83;;
54937;SDS011;52756;52.826;6.214;2023-02-11T08:24:01;34.30;;;20.77;;
54937;SDS011;52756;52.826;6.214;2023-02-11T08:26:28;35.83;;;20.20;;
54937;SDS011;52756;52.826;6.214;2023-02-11T08:29:02;38.17;;;22.05;;
54937;SDS011;52756;52.826;6.214;2023-02-11T08:31:33;32.22;;;19.67;;
54937;SDS011;52756;52.826;6.214;2023-02-11T08:34:00;36.88;;;20.30;;
54937;SDS011;52756;52.826;6.214;2023-02-11T08:36:27;37.25;;;20.67;;
54937;SDS011;52756;52.826;6.214;2023-02-11T08:38:56;34.95;;;19.83;;
54937;SDS011;52756;52.826;6.214;2023-02-11T08:41:29;37.28;;;20.92;;
54937;SDS011;52756;52.826;6.214;2023-02-11T08:43:56;33.33;;;20.20;;
54937;SDS011;52756;52.826;6.214;2023-02-11T08:46:21;36.67;;;21.27;;
54937;SDS011;52756;52.826;6.214;2023-02-11T08:48:47;36.70;;;21.15;;
54937;SDS011;52756;52.826;6.214;2023-02-11T08:51:17;34.40;;;20.67;;
54937;SDS011;52756;52.826;6.214;2023-02-11T08:53:48;33.45;;;20.10;;
54937;SDS011;52756;52.826;6.214;2023-02-11T08:56:15;37.47;;;20.95;;
54937;SDS011;52756;52.826;6.214;2023-02-11T08:58:41;40.85;;;21.77;;
54937;SDS011;52756;52.826;6.214;2023-02-11T09:01:11;42.72;;;23.70;;
54937;SDS011;52756;52.826;6.214;2023-02-11T09:03:39;38.05;;;20.88;;
54937;SDS011;52756;52.826;6.214;2023-02-11T09:06:06;39.25;;;21.75;;
54937;SDS011;52756;52.826;6.214;2023-02-11T09:08:34;37.42;;;21.08;;
54937;SDS011;52756;52.826;6.214;2023-02-11T09:11:03;36.05;;;20.63;;
54937;SDS011;52756;52.826;6.214;2023-02-11T09:13:30;35.92;;;21.38;;
54937;SDS011;52756;52.826;6.214;2023-02-11T09:15:57;33.85;;;19.65;;
54937;SDS011;52756;52.826;6.214;2023-02-11T09:18:24;37.85;;;22.10;;
54937;SDS011;52756;52.826;6.214;2023-02-11T09:20:50;38.20;;;21.02;;
54937;SDS011;52756;52.826;6.214;2023-02-11T09:23:16;39.58;;;22.40;;
54937;SDS011;52756;52.826;6.214;2023-02-11T09:25:42;38.78;;;22.15;;
54937;SDS011;52756;52.826;6.214;2023-02-11T09:28:08;36.42;;;22.42;;
54937;SDS011;52756;52.826;6.214;2023-02-11T09:30:35;35.65;;;20.30;;
54937;SDS011;52756;52.826;6.214;2023-02-11T09:33:01;37.15;;;22.65;;
54937;SDS011;52756;52.826;6.214;2023-02-11T09:35:27;38.05;;;22.65;;
54937;SDS011;52756;52.826;6.214;2023-02-11T09:37:54;37.50;;;22.40;;
54937;SDS011;52756;52.826;6.214;2023-02-11T09:40:19;38.70;;;21.67;;
54937;SDS011;52756;52.826;6.214;2023-02-11T09:42:54;32.55;;;21.00;;
54937;SDS011;52756;52.826;6.214;2023-02-11T09:45:29;36.45;;;20.85;;
54937;SDS011;52756;52.826;6.214;2023-02-11T09:48:00;35.22;;;20.98;;
54937;SDS011;52756;52.826;6.214;2023-02-11T09:50:38;36.47;;;21.27;;
54937;SDS011;52756;52.826;6.214;2023-02-11T09:53:14;35.92;;;19.15;;
54937;SDS011;52756;52.826;6.214;2023-02-11T09:56:08;32.60;;;19.35;;
54937;SDS011;52756;52.826;6.214;2023-02-11T09:58:40;27.98;;;18.60;;
54937;SDS011;52756;52.826;6.214;2023-02-11T10:01:15;29.90;;;18.55;;
54937;SDS011;52756;52.826;6.214;2023-02-11T10:04:19;29.73;;;17.00;;
54937;SDS011;52756;52.826;6.214;2023-02-11T10:07:22;25.38;;;15.63;;
54937;SDS011;52756;52.826;6.214;2023-02-11T10:10:27;29.48;;;15.82;;
54937;SDS011;52756;52.826;6.214;2023-02-11T10:18:55;35.05;;;17.67;;
54937;SDS011;52756;52.826;6.214;2023-02-11T10:24:18;27.25;;;15.27;;
54937;SDS011;52756;52.826;6.214;2023-02-11T10:26:44;26.67;;;15.27;;
54937;SDS011;52756;52.826;6.214;2023-02-11T10:34:55;22.45;;;13.68;;
54937;SDS011;52756;52.826;6.214;2023-02-11T10:37:25;21.42;;;13.38;;
54937;SDS011;52756;52.826;6.214;2023-02-11T10:39:51;19.90;;;12.18;;
54937;SDS011;52756;52.826;6.214;2023-02-11T10:42:17;20.48;;;12.50;;
54937;SDS011;52756;52.826;6.214;2023-02-11T10:45:04;22.23;;;12.82;;
54937;SDS011;52756;52.826;6.214;2023-02-11T10:47:33;24.65;;;12.50;;
54937;SDS011;52756;52.826;6.214;2023-02-11T10:53:19;17.95;;;10.10;;
54937;SDS011;52756;52.826;6.214;2023-02-11T10:55:55;20.25;;;9.60;;
54937;SDS011;52756;52.826;6.214;2023-02-11T10:58:27;18.60;;;10.00;;
54937;SDS011;52756;52.826;6.214;2023-02-11T11:00:55;18.42;;;8.80;;
54937;SDS011;52756;52.826;6.214;2023-02-11T11:03:23;18.48;;;8.82;;
54937;SDS011;52756;52.826;6.214;2023-02-11T11:05:52;15.90;;;8.57;;
54937;SDS011;52756;52.826;6.214;2023-02-11T11:08:21;16.48;;;8.50;;
54937;SDS011;52756;52.826;6.214;2023-02-11T11:11:10;14.88;;;8.63;;
54937;SDS011;52756;52.826;6.214;2023-02-11T11:21:34;16.48;;;7.65;;
54937;SDS011;52756;52.826;6.214;2023-02-11T11:24:21;18.15;;;8.40;;
54937;SDS011;52756;52.826;6.214;2023-02-11T11:26:56;17.30;;;7.47;;
54937;SDS011;52756;52.826;6.214;2023-02-11T11:35:02;22.85;;;8.82;;
54937;SDS011;52756;52.826;6.214;2023-02-11T11:37:33;17.33;;;8.25;;
54937;SDS011;52756;52.826;6.214;2023-02-11T11:40:09;15.75;;;7.72;;
54937;SDS011;52756;52.826;6.214;2023-02-11T11:42:36;23.05;;;8.60;;
54937;SDS011;52756;52.826;6.214;2023-02-11T11:45:24;20.30;;;7.57;;
54937;SDS011;52756;52.826;6.214;2023-02-11T11:50:51;15.57;;;7.47;;
54937;SDS011;52756;52.826;6.214;2023-02-11T11:53:26;15.02;;;7.60;;
54937;SDS011;52756;52.826;6.214;2023-02-11T11:56:13;14.85;;;7.35;;
54937;SDS011;52756;52.826;6.214;2023-02-11T11:58:48;16.58;;;7.07;;
54937;SDS011;52756;52.826;6.214;2023-02-11T12:09:24;18.02;;;8.05;;
54937;SDS011;52756;52.826;6.214;2023-02-11T12:28:37;14.18;;;4.47;;
54937;SDS011;52756;52.826;6.214;2023-02-11T12:55:55;13.65;;;4.20;;
54937;SDS011;52756;52.826;6.214;2023-02-11T12:58:28;13.40;;;4.32;;
54937;SDS011;52756;52.826;6.214;2023-02-11T13:01:17;17.52;;;5.32;;
54937;SDS011;52756;52.826;6.214;2023-02-11T13:03:53;12.05;;;3.42;;
54937;SDS011;52756;52.826;6.214;2023-02-11T13:06:39;9.95;;;4.03;;
54937;SDS011;52756;52.826;6.214;2023-02-11T13:09:15;13.52;;;3.95;;
54937;SDS011;52756;52.826;6.214;2023-02-11T13:11:47;17.85;;;4.00;;
54937;SDS011;52756;52.826;6.214;2023-02-11T13:16:53;9.23;;;3.60;;
54937;SDS011;52756;52.826;6.214;2023-02-11T13:19:40;13.05;;;3.90;;
54937;SDS011;52756;52.826;6.214;2023-02-11T13:24:48;8.25;;;3.55;;
54937;SDS011;52756;52.826;6.214;2023-02-11T13:35:29;10.52;;;3.65;;
54937;SDS011;52756;52.826;6.214;2023-02-11T13:37:58;14.43;;;3.80;;
54937;SDS011;52756;52.826;6.214;2023-02-11T13:40:26;10.57;;;3.65;;
54937;SDS011;52756;52.826;6.214;2023-02-11T13:42:55;9.43;;;3.25;;
54937;SDS011;52756;52.826;6.214;2023-02-11T13:47:58;11.23;;;3.83;;
54937;SDS011;52756;52.826;6.214;2023-02-11T13:50:26;11.80;;;3.95;;
54937;SDS011;52756;52.826;6.214;2023-02-11T13:53:00;10.23;;;4.10;;
54937;SDS011;52756;52.826;6.214;2023-02-11T13:55:27;7.63;;;3.08;;
54937;SDS011;52756;52.826;6.214;2023-02-11T14:06:16;7.78;;;3.08;;
54937;SDS011;52756;52.826;6.214;2023-02-11T14:14:16;9.02;;;2.88;;
54937;SDS011;52756;52.826;6.214;2023-02-11T14:19:44;12.75;;;3.38;;
54937;SDS011;52756;52.826;6.214;2023-02-11T14:22:12;13.45;;;3.35;;
54937;SDS011;52756;52.826;6.214;2023-02-11T14:24:46;16.05;;;3.72;;
54937;SDS011;52756;52.826;6.214;2023-02-11T14:38:51;9.18;;;2.88;;
54937;SDS011;52756;52.826;6.214;2023-02-11T14:41:40;11.18;;;2.60;;
54937;SDS011;52756;52.826;6.214;2023-02-11T14:44:24;7.00;;;2.22;;
54937;SDS011;52756;52.826;6.214;2023-02-11T14:46:53;14.65;;;4.10;;
54937;SDS011;52756;52.826;6.214;2023-02-11T14:49:30;13.48;;;3.22;;
54937;SDS011;52756;52.826;6.214;2023-02-11T14:52:04;8.80;;;2.50;;
54937;SDS011;52756;52.826;6.214;2023-02-11T14:54:41;13.55;;;2.95;;
54937;SDS011;52756;52.826;6.214;2023-02-11T14:57:11;13.95;;;3.78;;
54937;SDS011;52756;52.826;6.214;2023-02-11T14:59:39;8.55;;;2.38;;
54937;SDS011;52756;52.826;6.214;2023-02-11T15:02:21;11.60;;;2.92;;
54937;SDS011;52756;52.826;6.214;2023-02-11T15:04:50;8.98;;;2.90;;
54937;SDS011;52756;52.826;6.214;2023-02-11T15:07:16;11.93;;;3.30;;
54937;SDS011;52756;52.826;6.214;2023-02-11T15:12:19;13.48;;;3.85;;
54937;SDS011;52756;52.826;6.214;2023-02-11T15:14:53;9.27;;;2.45;;
54937;SDS011;52756;52.826;6.214;2023-02-11T15:17:22;12.57;;;2.92;;
54937;SDS011;52756;52.826;6.214;2023-02-11T15:19:52;10.73;;;2.55;;
54937;SDS011;52756;52.826;6.214;2023-02-11T15:22:26;17.80;;;3.05;;
54937;SDS011;52756;52.826;6.214;2023-02-11T15:25:00;8.63;;;2.67;;
54937;SDS011;52756;52.826;6.214;2023-02-11T15:27:41;6.30;;;2.25;;
54937;SDS011;52756;52.826;6.214;2023-02-11T15:32:50;8.70;;;2.78;;
54937;SDS011;52756;52.826;6.214;2023-02-11T15:35:17;9.75;;;2.72;;
54937;SDS011;52756;52.826;6.214;2023-02-11T15:37:43;13.68;;;2.88;;
54937;SDS011;52756;52.826;6.214;2023-02-11T15:40:13;9.27;;;2.47;;
54937;SDS011;52756;52.826;6.214;2023-02-11T15:42:53;12.95;;;2.33;;
54937;SDS011;52756;52.826;6.214;2023-02-11T15:45:37;10.93;;;2.38;;
54937;SDS011;52756;52.826;6.214;2023-02-11T15:48:16;15.68;;;3.00;;
54937;SDS011;52756;52.826;6.214;2023-02-11T15:50:51;11.77;;;3.10;;
54937;SDS011;52756;52.826;6.214;2023-02-11T15:56:22;14.32;;;2.60;;
54937;SDS011;52756;52.826;6.214;2023-02-11T15:58:55;12.68;;;2.72;;
54937;SDS011;52756;52.826;6.214;2023-02-11T16:01:33;11.82;;;3.10;;
54937;SDS011;52756;52.826;6.214;2023-02-11T16:04:01;9.15;;;2.63;;
54937;SDS011;52756;52.826;6.214;2023-02-11T16:07:01;10.27;;;2.47;;
54937;SDS011;52756;52.826;6.214;2023-02-11T16:09:22;8.30;;;2.55;;
54937;SDS011;52756;52.826;6.214;2023-02-11T16:16:48;14.35;;;2.47;;
54937;SDS011;52756;52.826;6.214;2023-02-11T16:19:19;14.23;;;2.80;;
54937;SDS011;52756;52.826;6.214;2023-02-11T16:21:47;11.05;;;3.03;;
54937;SDS011;52756;52.826;6.214;2023-02-11T16:24:16;10.63;;;2.40;;
54937;SDS011;52756;52.826;6.214;2023-02-11T16:26:52;9.38;;;2.78;;
54937;SDS011;52756;52.826;6.214;2023-02-11T16:29:24;6.85;;;2.38;;
54937;SDS011;52756;52.826;6.214;2023-02-11T16:31:52;11.35;;;2.47;;
54937;SDS011;52756;52.826;6.214;2023-02-11T16:34:28;13.80;;;3.10;;
54937;SDS011;52756;52.826;6.214;2023-02-11T16:36:54;9.15;;;2.35;;
54937;SDS011;52756;52.826;6.214;2023-02-11T16:39:19;9.82;;;2.40;;
54937;SDS011;52756;52.826;6.214;2023-02-11T16:41:46;7.88;;;1.90;;
54937;SDS011;52756;52.826;6.214;2023-02-11T16:44:14;8.02;;;2.20;;
54937;SDS011;52756;52.826;6.214;2023-02-11T16:46:43;6.57;;;2.25;;
54937;SDS011;52756;52.826;6.214;2023-02-11T16:51:51;11.45;;;3.17;;
54937;SDS011;52756;52.826;6.214;2023-02-11T16:54:21;9.73;;;2.60;;
54937;SDS011;52756;52.826;6.214;2023-02-11T16:56:47;11.80;;;2.25;;
54937;SDS011;52756;52.826;6.214;2023-02-11T16:59:14;8.90;;;2.13;;
54937;SDS011;52756;52.826;6.214;2023-02-11T17:01:40;9.20;;;2.05;;
54937;SDS011;52756;52.826;6.214;2023-02-11T17:04:09;7.60;;;1.90;;
54937;SDS011;52756;52.826;6.214;2023-02-11T17:06:45;8.90;;;2.58;;
54937;SDS011;52756;52.826;6.214;2023-02-11T17:09:22;7.90;;;2.03;;
54937;SDS011;52756;52.826;6.214;2023-02-11T17:11:49;11.15;;;2.45;;
54937;SDS011;52756;52.826;6.214;2023-02-11T17:14:16;9.57;;;2.92;;
54937;SDS011;52756;52.826;6.214;2023-02-11T17:16:42;10.05;;;2.30;;
54937;SDS011;52756;52.826;6.214;2023-02-11T17:19:14;9.15;;;2.05;;
54937;SDS011;52756;52.826;6.214;2023-02-11T17:21:42;5.22;;;1.98;;
54937;SDS011;52756;52.826;6.214;2023-02-11T17:24:08;8.48;;;1.83;;
54937;SDS011;52756;52.826;6.214;2023-02-11T17:26:35;10.30;;;2.60;;
54937;SDS011;52756;52.826;6.214;2023-02-11T17:29:05;8.70;;;2.05;;
54937;SDS011;52756;52.826;6.214;2023-02-11T17:31:31;8.23;;;2.50;;
54937;SDS011;52756;52.826;6.214;2023-02-11T17:33:57;10.60;;;2.17;;
54937;SDS011;52756;52.826;6.214;2023-02-11T17:36:23;8.55;;;2.30;;
54937;SDS011;52756;52.826;6.214;2023-02-11T17:38:49;8.10;;;2.17;;
54937;SDS011;52756;52.826;6.214;2023-02-11T17:41:16;7.95;;;2.65;;
54937;SDS011;52756;52.826;6.214;2023-02-11T17:43:41;8.10;;;1.85;;
54937;SDS011;52756;52.826;6.214;2023-02-11T17:46:07;6.13;;;1.95;;